Time;durP1;ratioP1;P1;durP2;ratioP2;P2;SDS_P1;SDS_P2;PMS_P1;PMS_P2;Temp;Humidity;BMP_temperature;BMP_pressure;BME280_temperature;BME280_humidity;BME280_pressure;Samples;Min_cycle;Max_cycle;Signal;HPM_P1;HPM_P2
2023/04/13 00:00:41;;;;;;;9.07;8.77;;;9.70;40.80;;;;;;5015257;28;20507;-78
2023/04/13 00:03:10;;;;;;;8.33;8.13;;;9.60;41.40;;;;;;5014683;28;20556;-77
2023/04/13 00:05:37;;;;;;;9.13;8.83;;;9.50;42.10;;;;;;5007196;28;20419;-78
2023/04/13 00:08:03;;;;;;;8.70;8.50;;;9.40;42.00;;;;;;5006743;28;20420;-78
2023/04/13 00:10:39;;;;;;;9.13;8.93;;;9.40;42.00;;;;;;5009554;28;20779;-77
2023/04/13 00:13:06;;;;;;;8.13;7.93;;;9.40;42.00;;;;;;5005264;28;20490;-78
2023/04/13 00:15:35;;;;;;;8.87;8.67;;;9.40;43.30;;;;;;5004289;28;20500;-78
2023/04/13 00:18:03;;;;;;;8.93;8.70;;;9.30;42.00;;;;;;5005855;28;20409;-77
2023/04/13 00:20:29;;;;;;;8.80;8.50;;;9.10;41.80;;;;;;5005799;28;21071;-79
2023/04/13 00:22:55;;;;;;;9.50;9.10;;;9.00;41.70;;;;;;5005867;28;20416;-79
2023/04/13 00:25:20;;;;;;;8.80;8.50;;;9.00;42.20;;;;;;5002765;28;20417;-78
2023/04/13 00:27:46;;;;;;;8.67;8.47;;;9.00;41.70;;;;;;5004064;28;20204;-76
2023/04/13 00:30:13;;;;;;;9.07;8.77;;;8.90;41.70;;;;;;5002537;28;20193;-76
2023/04/13 00:32:41;;;;;;;8.63;8.37;;;8.80;42.00;;;;;;5004290;28;20173;-77
2023/04/13 00:35:08;;;;;;;8.60;8.30;;;8.90;42.50;;;;;;5004364;28;20455;-77
2023/04/13 00:37:34;;;;;;;8.20;8.00;;;8.80;41.60;;;;;;5005075;28;20486;-77
2023/04/13 00:39:59;;;;;;;8.73;8.53;;;8.90;42.70;;;;;;5001424;28;20804;-77
2023/04/13 00:42:25;;;;;;;8.63;8.43;;;8.90;42.90;;;;;;5002393;28;20463;-78
2023/04/13 00:44:52;;;;;;;8.20;8.00;;;8.90;41.70;;;;;;5001175;28;20212;-78
2023/04/13 00:47:25;;;;;;;8.40;8.00;;;8.70;42.60;;;;;;5002666;28;20746;-77
2023/04/13 00:49:52;;;;;;;8.37;8.00;;;8.80;42.70;;;;;;5002720;28;20432;-78
2023/04/13 00:52:20;;;;;;;8.77;8.47;;;8.80;42.70;;;;;;5000621;28;21002;-77
2023/04/13 00:54:47;;;;;;;9.10;8.80;;;8.80;42.30;;;;;;5004533;28;20425;-78
2023/04/13 00:57:15;;;;;;;8.70;8.40;;;8.90;42.90;;;;;;5002011;28;20458;-78
2023/04/13 00:59:40;;;;;;;8.23;8.03;;;8.80;42.60;;;;;;5000760;28;20440;-78
2023/04/13 01:02:06;;;;;;;8.90;8.60;;;8.80;41.60;;;;;;5000365;28;20474;-78
2023/04/13 01:04:32;;;;;;;8.67;8.47;;;8.90;41.70;;;;;;5012249;28;20280;-78
2023/04/13 01:07:24;;;;;;;8.70;8.40;;;8.80;41.70;;;;;;5009631;28;20177;-78
2023/04/13 01:10:11;;;;;;;8.40;8.20;;;8.90;42.10;;;;;;5001045;28;20519;-78
2023/04/13 01:12:37;;;;;;;8.80;8.50;;;8.80;41.60;;;;;;5002647;28;20496;-77
2023/04/13 01:15:11;;;;;;;9.37;9.07;;;8.80;41.60;;;;;;5001946;28;20511;-80
2023/04/13 01:17:39;;;;;;;9.73;9.33;;;8.70;40.60;;;;;;5001823;28;20179;-77
2023/04/13 01:20:10;;;;;;;9.67;9.27;;;8.70;41.50;;;;;;5001095;28;20926;-78
2023/04/13 01:22:40;;;;;;;9.40;9.10;;;8.80;40.60;;;;;;4997896;28;20417;-77
2023/04/13 01:25:24;;;;;;;9.47;9.17;;;8.80;40.60;;;;;;4999757;28;20452;-77
2023/04/13 01:28:04;;;;;;;10.07;9.77;;;8.80;39.60;;;;;;5001677;28;20432;-80
2023/04/13 01:30:31;;;;;;;9.20;8.90;;;8.80;40.00;;;;;;4999467;28;20463;-77
2023/04/13 01:33:00;;;;;;;9.50;9.20;;;8.80;39.90;;;;;;4998916;28;20419;-80
2023/04/13 01:35:26;;;;;;;8.63;8.43;;;8.80;38.90;;;;;;4999196;28;20427;-77
2023/04/13 01:37:52;;;;;;;9.43;9.13;;;8.80;37.90;;;;;;5000847;28;20412;-76
2023/04/13 01:40:19;;;;;;;9.10;8.90;;;8.70;38.90;;;;;;5001177;28;20263;-77
2023/04/13 01:42:46;;;;;;;9.30;9.00;;;8.90;38.80;;;;;;4999677;28;20698;-77
2023/04/13 01:45:18;;;;;;;9.60;9.20;;;8.90;38.40;;;;;;4998016;28;20468;-76
2023/04/13 01:48:25;;;;;;;9.10;8.80;;;8.90;38.50;;;;;;5000151;28;20420;-77
2023/04/13 01:51:06;;;;;;;9.10;8.80;;;8.90;37.50;;;;;;4983055;28;20444;-78
2023/04/13 01:54:09;;;;;;;9.33;9.03;;;8.90;38.20;;;;;;5000272;28;20490;-77
2023/04/13 01:56:36;;;;;;;9.43;9.10;;;8.90;38.30;;;;;;4989582;28;20420;-78
2023/04/13 01:59:02;;;;;;;9.50;9.10;;;8.90;38.50;;;;;;5001418;28;20459;-76
2023/04/13 02:01:27;;;;;;;8.90;8.70;;;8.90;38.40;;;;;;5000863;28;20466;-78
2023/04/13 02:03:53;;;;;;;9.87;9.57;;;8.80;38.30;;;;;;4998751;28;20619;-77
2023/04/13 02:06:19;;;;;;;9.00;8.70;;;8.80;38.00;;;;;;5000030;28;20580;-78
2023/04/13 02:08:45;;;;;;;9.93;9.53;;;8.70;37.50;;;;;;4997810;28;20169;-77
2023/04/13 02:11:11;;;;;;;9.30;9.00;;;8.60;38.30;;;;;;4998880;28;20466;-77
2023/04/13 02:13:37;;;;;;;8.90;8.70;;;8.80;38.50;;;;;;4997110;28;20788;-76
2023/04/13 02:16:05;;;;;;;8.90;8.60;;;8.80;37.10;;;;;;5000702;28;20268;-77
2023/04/13 02:18:30;;;;;;;8.50;8.20;;;9.00;38.00;;;;;;5001201;28;20247;-79
2023/04/13 02:21:03;;;;;;;9.60;9.20;;;9.30;38.30;;;;;;5001642;28;20413;-80
2023/04/13 02:23:30;;;;;;;9.33;9.03;;;9.60;38.10;;;;;;4997800;28;20268;-80
2023/04/13 02:25:55;;;;;;;9.00;8.70;;;9.80;37.80;;;;;;5000035;28;20412;-76
2023/04/13 02:28:21;;;;;;;9.33;9.07;;;9.80;36.30;;;;;;4998634;28;20459;-78
2023/04/13 02:30:46;;;;;;;8.77;8.57;;;10.00;35.20;;;;;;4998364;28;20209;-77
2023/04/13 02:33:12;;;;;;;8.83;8.43;;;10.10;34.50;;;;;;4999506;28;20181;-78
2023/04/13 02:35:37;;;;;;;9.60;9.20;;;10.20;33.80;;;;;;4999168;28;20896;-78
2023/04/13 02:38:09;;;;;;;8.73;8.53;;;10.30;33.10;;;;;;5000117;28;20169;-78
2023/04/13 02:40:35;;;;;;;9.00;8.73;;;10.40;32.50;;;;;;4998023;28;20244;-79
2023/04/13 02:43:00;;;;;;;9.47;9.07;;;10.40;31.90;;;;;;4997574;28;20455;-78
2023/04/13 02:45:27;;;;;;;9.73;9.43;;;10.50;31.90;;;;;;4997594;28;20170;-77
2023/04/13 02:47:52;;;;;;;9.20;8.90;;;10.50;31.90;;;;;;4998276;28;20169;-78
2023/04/13 02:50:18;;;;;;;9.57;9.27;;;10.50;32.70;;;;;;5001723;28;20490;-79
2023/04/13 02:52:45;;;;;;;9.73;9.43;;;10.50;32.00;;;;;;5002102;28;20212;-79
2023/04/13 02:55:11;;;;;;;9.30;9.00;;;10.20;31.20;;;;;;5000191;28;20758;-78
2023/04/13 02:57:37;;;;;;;9.63;9.10;;;9.90;34.20;;;;;;4999851;28;20456;-78
2023/04/13 03:00:09;;;;;;;9.70;9.40;;;9.60;34.10;;;;;;5001372;28;20462;-78
2023/04/13 03:02:35;;;;;;;9.20;8.90;;;9.40;35.50;;;;;;4999774;28;20540;-79
2023/04/13 03:05:03;;;;;;;9.67;9.37;;;9.30;35.50;;;;;;5000440;28;20554;-79
2023/04/13 03:07:30;;;;;;;9.70;9.40;;;9.10;35.60;;;;;;5002394;28;20443;-77
2023/04/13 03:09:56;;;;;;;9.70;9.40;;;9.00;36.20;;;;;;5008914;28;20424;-77
2023/04/13 03:12:21;;;;;;;9.70;9.40;;;8.80;37.70;;;;;;5006966;28;20409;-78
2023/04/13 03:14:48;;;;;;;10.77;10.37;;;8.80;37.90;;;;;;5010074;28;20188;-77
2023/04/13 03:17:15;;;;;;;10.27;9.77;;;8.70;37.70;;;;;;5015799;28;20204;-78
2023/04/13 03:19:45;;;;;;;9.83;9.53;;;8.60;37.70;;;;;;5016288;28;20444;-78
2023/04/13 03:22:11;;;;;;;9.40;9.10;;;8.50;38.00;;;;;;5015884;28;20448;-78
2023/04/13 03:24:37;;;;;;;9.17;8.90;;;8.50;38.40;;;;;;5011089;28;20468;-78
2023/04/13 03:27:03;;;;;;;9.30;9.00;;;8.50;37.50;;;;;;5009003;28;20507;-77
2023/04/13 03:29:28;;;;;;;10.07;9.37;;;8.50;37.70;;;;;;5004926;28;20201;-78
2023/04/13 03:31:54;;;;;;;10.20;9.70;;;8.50;37.90;;;;;;5002857;28;20190;-77
2023/04/13 03:34:20;;;;;;;9.00;8.70;;;8.40;37.80;;;;;;4999937;28;20166;-77
2023/04/13 03:36:46;;;;;;;8.80;8.50;;;8.40;37.70;;;;;;5002596;28;20999;-77
2023/04/13 03:39:11;;;;;;;8.87;8.60;;;8.50;38.10;;;;;;5002421;28;20583;-77
2023/04/13 03:41:37;;;;;;;8.53;8.33;;;8.60;38.10;;;;;;5001733;28;20192;-77
2023/04/13 03:44:03;;;;;;;9.07;8.67;;;8.60;37.60;;;;;;5002523;28;20283;-77
2023/04/13 03:46:30;;;;;;;9.30;9.00;;;8.50;36.70;;;;;;5006202;28;20173;-77
2023/04/13 03:48:56;;;;;;;9.57;9.23;;;8.60;37.00;;;;;;5007757;28;20435;-77
2023/04/13 03:51:22;;;;;;;9.07;8.70;;;8.70;37.60;;;;;;5008426;28;20428;-77
2023/04/13 03:53:47;;;;;;;8.83;8.53;;;8.70;36.30;;;;;;5009186;28;20201;-78
2023/04/13 03:56:13;;;;;;;9.17;8.87;;;8.70;35.10;;;;;;5008381;28;20272;-77
2023/04/13 03:58:40;;;;;;;8.87;8.57;;;8.90;36.10;;;;;;5011410;28;20281;-77
2023/04/13 04:01:08;;;;;;;8.07;7.87;;;8.80;35.00;;;;;;5009129;28;20185;-77
2023/04/13 04:03:34;;;;;;;8.03;7.83;;;8.80;35.20;;;;;;5012335;28;21000;-78
2023/04/13 04:05:59;;;;;;;8.03;7.83;;;8.90;35.90;;;;;;5010811;28;20439;-77
2023/04/13 04:08:25;;;;;;;7.83;7.63;;;8.90;35.20;;;;;;5011045;28;20247;-77
2023/04/13 04:10:51;;;;;;;8.33;8.13;;;9.00;35.20;;;;;;5012899;28;20562;-77
2023/04/13 04:13:16;;;;;;;9.00;8.70;;;9.00;35.80;;;;;;5013267;28;20185;-76
2023/04/13 04:15:42;;;;;;;8.30;8.00;;;8.90;35.00;;;;;;5012490;28;20569;-76
2023/04/13 04:18:08;;;;;;;8.50;8.20;;;9.00;34.70;;;;;;5010323;28;20174;-76
2023/04/13 04:20:34;;;;;;;9.33;8.80;;;9.00;34.70;;;;;;5011378;28;20272;-76
2023/04/13 04:23:00;;;;;;;9.53;9.13;;;9.00;34.90;;;;;;5013514;28;20504;-76
2023/04/13 04:25:26;;;;;;;9.10;8.63;;;9.00;34.10;;;;;;5012333;28;20228;-76
2023/04/13 04:27:56;;;;;;;9.27;8.97;;;8.80;34.60;;;;;;5013776;28;20818;-76
2023/04/13 04:30:23;;;;;;;9.03;8.83;;;8.70;35.40;;;;;;5013440;28;20478;-76
2023/04/13 04:32:52;;;;;;;9.17;8.67;;;8.70;35.20;;;;;;5013718;28;20405;-75
2023/04/13 04:35:19;;;;;;;9.10;8.80;;;8.70;35.60;;;;;;5014662;28;20767;-76
2023/04/13 04:37:48;;;;;;;8.73;8.53;;;8.60;35.00;;;;;;5012302;28;20853;-77
2023/04/13 04:40:14;;;;;;;8.87;8.57;;;8.60;35.80;;;;;;5013403;28;20806;-77
2023/04/13 04:42:41;;;;;;;8.50;8.20;;;8.50;34.90;;;;;;5012491;28;20420;-76
2023/04/13 04:45:08;;;;;;;9.30;9.00;;;8.40;34.70;;;;;;5011911;28;20503;-76
2023/04/13 04:47:40;;;;;;;9.40;9.00;;;8.30;34.80;;;;;;5012001;28;20425;-77
2023/04/13 04:50:07;;;;;;;9.47;9.17;;;8.30;35.10;;;;;;5013540;28;20428;-77
2023/04/13 04:52:33;;;;;;;9.00;8.70;;;8.30;35.40;;;;;;5013132;28;20436;-77
2023/04/13 04:54:58;;;;;;;9.83;9.43;;;8.30;35.10;;;;;;5011617;28;20460;-76
2023/04/13 04:57:24;;;;;;;8.83;8.43;;;8.30;35.40;;;;;;5011704;28;20423;-77
2023/04/13 04:59:50;;;;;;;8.83;8.43;;;8.20;35.40;;;;;;5012316;28;20295;-78
2023/04/13 05:02:16;;;;;;;9.10;8.70;;;8.20;35.00;;;;;;5011619;28;20421;-77
2023/04/13 05:04:41;;;;;;;9.13;8.73;;;8.30;34.90;;;;;;5011810;28;20533;-76
2023/04/13 05:07:08;;;;;;;8.37;7.87;;;8.40;35.10;;;;;;5013321;28;20528;-77
2023/04/13 05:09:35;;;;;;;9.60;9.00;;;8.40;34.40;;;;;;5011009;28;20580;-76
2023/04/13 05:12:02;;;;;;;9.10;8.67;;;8.40;33.80;;;;;;5012819;28;20412;-77
2023/04/13 05:14:28;;;;;;;9.07;8.53;;;8.50;33.70;;;;;;5011661;28;20434;-76
2023/04/13 05:16:54;;;;;;;8.70;8.40;;;8.50;33.80;;;;;;5013193;28;20918;-75
2023/04/13 05:19:19;;;;;;;9.10;8.80;;;8.50;33.30;;;;;;5011469;28;20198;-77
2023/04/13 05:21:45;;;;;;;8.70;8.40;;;8.40;33.10;;;;;;5012588;28;20535;-76
2023/04/13 05:24:10;;;;;;;9.20;8.70;;;8.40;33.00;;;;;;5013213;28;20211;-77
2023/04/13 05:26:36;;;;;;;8.63;8.27;;;8.40;32.90;;;;;;5013302;28;20177;-77
2023/04/13 05:29:03;;;;;;;8.97;8.67;;;8.40;33.10;;;;;;5012023;28;20197;-77
2023/04/13 05:31:29;;;;;;;9.90;9.10;;;8.50;33.30;;;;;;5012359;28;20470;-77
2023/04/13 05:33:54;;;;;;;9.97;9.57;;;8.50;32.50;;;;;;5012886;28;20412;-77
2023/04/13 05:36:20;;;;;;;9.23;8.93;;;8.50;32.90;;;;;;5012036;28;20670;-77
2023/04/13 05:38:45;;;;;;;9.50;9.10;;;8.40;32.90;;;;;;5004625;28;20266;-78
2023/04/13 05:41:11;;;;;;;8.80;8.30;;;8.40;32.90;;;;;;4993473;28;20249;-79
2023/04/13 05:43:37;;;;;;;8.63;8.23;;;8.40;32.80;;;;;;5011903;28;20193;-77
2023/04/13 05:46:03;;;;;;;8.40;8.00;;;8.50;31.20;;;;;;5013104;28;20408;-77
2023/04/13 05:48:28;;;;;;;8.00;7.50;;;8.50;32.40;;;;;;5012672;28;20174;-77
2023/04/13 05:50:57;;;;;;;8.47;7.97;;;8.40;31.20;;;;;;5010628;28;20207;-77
2023/04/13 05:53:23;;;;;;;9.00;8.60;;;8.40;32.00;;;;;;5011558;28;20208;-77
2023/04/13 05:55:48;;;;;;;9.90;9.20;;;8.40;31.10;;;;;;5012600;28;20966;-77
2023/04/13 05:58:14;;;;;;;9.63;9.13;;;8.40;31.50;;;;;;5012438;28;20277;-79
2023/04/13 06:00:40;;;;;;;10.70;10.13;;;8.40;31.20;;;;;;5013154;28;20332;-78
2023/04/13 06:03:06;;;;;;;9.60;9.10;;;8.40;31.80;;;;;;5011195;28;20205;-78
2023/04/13 06:05:34;;;;;;;10.17;9.57;;;8.30;32.10;;;;;;5011530;28;20169;-77
2023/04/13 06:07:59;;;;;;;9.23;8.63;;;8.40;31.80;;;;;;5011479;28;20404;-77
2023/04/13 06:10:25;;;;;;;9.67;9.10;;;8.30;31.00;;;;;;5010076;28;20429;-76
2023/04/13 06:12:52;;;;;;;9.23;8.83;;;8.40;31.60;;;;;;5010342;28;20239;-77
2023/04/13 06:15:19;;;;;;;9.60;9.10;;;8.40;31.20;;;;;;5012283;28;20412;-77
2023/04/13 06:17:45;;;;;;;8.57;8.07;;;8.40;31.10;;;;;;5012420;28;20408;-77
2023/04/13 06:20:11;;;;;;;9.73;9.00;;;8.30;31.00;;;;;;5012498;28;20434;-76
2023/04/13 06:22:37;;;;;;;10.43;9.53;;;8.40;31.10;;;;;;5010412;28;20174;-76
2023/04/13 06:25:03;;;;;;;10.10;9.60;;;8.40;31.10;;;;;;5011060;28;20993;-77
2023/04/13 06:27:32;;;;;;;9.00;8.60;;;8.40;31.10;;;;;;5012247;28;20413;-77
2023/04/13 06:29:58;;;;;;;10.00;9.40;;;8.50;30.50;;;;;;5012503;28;20431;-76
2023/04/13 06:32:23;;;;;;;8.83;8.23;;;8.50;30.70;;;;;;5011632;28;20408;-77
2023/04/13 06:34:49;;;;;;;8.90;8.40;;;8.60;30.70;;;;;;5012810;28;20174;-77
2023/04/13 06:37:15;;;;;;;8.20;7.90;;;8.70;30.00;;;;;;5011038;28;20182;-78
2023/04/13 06:39:41;;;;;;;9.30;8.80;;;8.70;29.60;;;;;;5009875;28;20355;-77
2023/04/13 06:42:06;;;;;;;9.20;8.70;;;8.60;30.30;;;;;;5009942;28;20714;-77
2023/04/13 06:44:32;;;;;;;9.10;8.80;;;8.60;30.30;;;;;;5010413;28;20456;-77
2023/04/13 06:46:57;;;;;;;9.60;9.20;;;8.70;30.00;;;;;;5010733;28;20411;-77
2023/04/13 06:49:23;;;;;;;10.10;9.63;;;8.70;30.10;;;;;;5010817;28;20193;-78
2023/04/13 06:51:48;;;;;;;9.03;8.40;;;8.80;29.80;;;;;;5009224;28;20249;-77
2023/04/13 06:54:14;;;;;;;9.37;8.80;;;8.80;29.90;;;;;;5010230;28;20595;-78
2023/04/13 06:56:40;;;;;;;9.37;8.80;;;8.80;29.70;;;;;;5011371;28;20165;-78
2023/04/13 06:59:05;;;;;;;8.23;7.80;;;8.80;29.30;;;;;;5011851;28;20255;-78
2023/04/13 07:01:31;;;;;;;8.53;8.03;;;8.90;29.70;;;;;;5011626;28;20182;-78
2023/04/13 07:03:57;;;;;;;8.20;7.73;;;8.90;29.10;;;;;;5011668;28;20208;-77
2023/04/13 07:06:23;;;;;;;8.83;8.43;;;8.90;29.40;;;;;;5011989;28;20192;-78
2023/04/13 07:08:49;;;;;;;10.30;8.43;;;8.90;29.40;;;;;;5011982;28;20428;-76
2023/04/13 07:11:14;;;;;;;9.10;8.67;;;8.90;29.10;;;;;;5010550;28;20412;-78
2023/04/13 07:13:40;;;;;;;8.57;8.00;;;9.00;29.40;;;;;;5011858;28;20256;-78
2023/04/13 07:16:10;;;;;;;8.37;7.97;;;9.10;29.40;;;;;;5010756;28;20186;-78
2023/04/13 07:18:36;;;;;;;9.10;8.37;;;9.10;29.00;;;;;;5011803;28;20585;-78
2023/04/13 07:21:01;;;;;;;8.57;8.07;;;9.00;29.00;;;;;;5011786;28;20436;-77
2023/04/13 07:23:27;;;;;;;8.93;8.43;;;9.00;28.80;;;;;;5015097;28;20232;-77
2023/04/13 07:25:52;;;;;;;8.40;8.00;;;9.00;28.70;;;;;;5015772;28;20205;-76
2023/04/13 07:28:18;;;;;;;8.33;7.87;;;8.90;28.70;;;;;;5015888;28;20204;-77
2023/04/13 07:30:45;;;;;;;8.67;8.10;;;8.90;28.60;;;;;;5015643;28;20194;-77
2023/04/13 07:33:21;;;;;;;8.17;7.60;;;8.90;29.10;;;;;;5015151;28;20312;-76
2023/04/13 07:35:49;;;;;;;9.27;8.40;;;9.00;28.80;;;;;;5014222;28;20555;-76
2023/04/13 07:38:14;;;;;;;7.63;7.23;;;9.10;28.70;;;;;;5014146;28;20543;-76
2023/04/13 07:40:40;;;;;;;9.20;8.70;;;9.10;28.70;;;;;;5015253;28;20452;-77
2023/04/13 07:43:05;;;;;;;8.00;7.60;;;9.10;28.80;;;;;;5013775;28;20179;-78
2023/04/13 07:45:31;;;;;;;8.70;8.20;;;9.10;29.10;;;;;;5015424;28;20216;-78
2023/04/13 07:47:57;;;;;;;8.43;7.93;;;9.20;29.20;;;;;;5015516;28;20173;-78
2023/04/13 07:50:22;;;;;;;8.53;8.03;;;9.20;28.70;;;;;;5015138;28;20193;-77
2023/04/13 07:52:48;;;;;;;7.37;6.80;;;9.30;29.30;;;;;;5013266;28;20618;-78
2023/04/13 07:55:13;;;;;;;8.67;8.13;;;9.30;29.60;;;;;;5014613;28;20182;-77
2023/04/13 07:57:39;;;;;;;8.17;7.57;;;9.10;29.90;;;;;;5014929;28;20216;-75
2023/04/13 08:00:05;;;;;;;8.63;8.20;;;9.10;32.10;;;;;;5014307;28;20263;-76
2023/04/13 08:02:32;;;;;;;8.60;7.83;;;9.10;31.70;;;;;;5013938;28;20763;-76
2023/04/13 08:04:58;;;;;;;9.33;8.77;;;9.00;31.60;;;;;;5013946;28;21056;-78
2023/04/13 08:07:24;;;;;;;8.77;8.20;;;9.10;31.70;;;;;;5012365;28;20416;-78
2023/04/13 08:09:51;;;;;;;8.17;7.37;;;9.00;30.20;;;;;;5012406;28;20948;-79
2023/04/13 08:12:17;;;;;;;8.53;7.97;;;8.90;31.50;;;;;;5013119;28;20792;-78
2023/04/13 08:14:43;;;;;;;7.57;6.87;;;8.90;31.10;;;;;;5015100;28;20790;-77
2023/04/13 08:17:09;;;;;;;8.37;7.70;;;8.90;30.60;;;;;;5014364;28;20420;-76
2023/04/13 08:19:35;;;;;;;8.43;7.87;;;8.90;30.20;;;;;;5012913;28;20201;-76
2023/04/13 08:22:00;;;;;;;8.37;7.77;;;9.00;29.90;;;;;;5012581;28;21201;-77
2023/04/13 08:24:26;;;;;;;8.43;7.80;;;9.10;29.90;;;;;;5013994;28;20504;-77
2023/04/13 08:26:53;;;;;;;8.40;8.00;;;9.20;29.70;;;;;;5015019;28;20170;-78
2023/04/13 08:29:20;;;;;;;8.40;7.90;;;9.10;29.70;;;;;;5013761;28;20433;-78
2023/04/13 08:31:45;;;;;;;8.10;7.50;;;9.20;29.50;;;;;;5013983;28;20412;-77
2023/04/13 08:34:12;;;;;;;8.60;8.00;;;9.40;29.20;;;;;;5013342;28;20507;-76
2023/04/13 08:36:38;;;;;;;9.20;8.60;;;9.50;29.00;;;;;;5013442;28;20206;-77
2023/04/13 08:39:04;;;;;;;7.73;7.13;;;9.70;28.80;;;;;;5014316;28;20452;-77
2023/04/13 08:41:32;;;;;;;10.83;8.00;;;9.80;27.70;;;;;;5014028;28;20718;-77
2023/04/13 08:44:04;;;;;;;8.70;8.30;;;9.80;27.60;;;;;;5012757;28;20991;-76
2023/04/13 08:46:30;;;;;;;8.50;7.87;;;9.90;27.00;;;;;;5013015;28;20401;-77
2023/04/13 08:48:58;;;;;;;9.93;9.30;;;9.90;27.00;;;;;;5013755;28;20447;-77
2023/04/13 08:51:25;;;;;;;8.40;7.80;;;9.70;27.70;;;;;;5012080;28;20251;-78
2023/04/13 08:53:55;;;;;;;9.20;7.90;;;9.50;28.20;;;;;;5014255;28;20544;-78
2023/04/13 08:56:21;;;;;;;9.40;8.63;;;9.50;28.70;;;;;;5012942;28;20490;-76
2023/04/13 08:58:48;;;;;;;9.73;8.87;;;9.50;29.20;;;;;;5014122;28;20418;-78
2023/04/13 09:01:15;;;;;;;9.17;8.60;;;9.40;29.40;;;;;;5013312;28;20508;-77
2023/04/13 09:03:54;;;;;;;9.73;9.17;;;9.30;29.40;;;;;;5014115;28;20468;-77
2023/04/13 09:06:26;;;;;;;8.87;8.30;;;9.40;29.50;;;;;;5013151;28;20430;-77
2023/04/13 09:08:54;;;;;;;9.30;8.40;;;9.40;29.00;;;;;;5014193;28;20822;-78
2023/04/13 09:11:20;;;;;;;9.07;8.23;;;9.50;29.00;;;;;;5013649;28;20420;-78
2023/04/13 09:13:50;;;;;;;8.50;8.00;;;9.70;28.90;;;;;;5014247;28;20424;-77
2023/04/13 09:16:19;;;;;;;8.30;7.80;;;9.80;28.50;;;;;;5014108;28;20420;-77
2023/04/13 09:18:51;;;;;;;9.80;8.73;;;9.80;28.40;;;;;;5012472;28;20428;-78
2023/04/13 09:21:18;;;;;;;8.70;8.07;;;9.90;28.40;;;;;;5011958;28;20448;-78
2023/04/13 09:23:57;;;;;;;8.57;8.07;;;10.00;28.90;;;;;;5013779;28;20451;-77
2023/04/13 09:26:22;;;;;;;8.30;7.90;;;10.00;26.80;;;;;;5012314;28;20420;-78
2023/04/13 09:28:50;;;;;;;8.50;8.00;;;10.10;25.70;;;;;;5013114;28;21489;-78
2023/04/13 09:31:15;;;;;;;8.57;7.97;;;10.30;26.10;;;;;;5012839;28;20228;-77
2023/04/13 09:33:50;;;;;;;9.00;8.40;;;10.40;25.70;;;;;;5012915;28;20452;-77
2023/04/13 09:36:18;;;;;;;8.10;7.63;;;10.50;25.50;;;;;;5013397;28;20181;-76
2023/04/13 09:38:49;;;;;;;8.40;8.00;;;10.60;25.20;;;;;;5012911;28;20477;-77
2023/04/13 09:41:15;;;;;;;7.60;7.20;;;10.60;23.00;;;;;;5011856;28;20416;-77
2023/04/13 09:43:40;;;;;;;7.83;7.40;;;10.50;22.40;;;;;;5013044;28;20478;-77
2023/04/13 09:46:12;;;;;;;7.77;7.43;;;10.50;22.10;;;;;;5012196;28;20424;-77
2023/04/13 09:48:57;;;;;;;8.17;7.57;;;10.60;21.90;;;;;;5012907;28;20184;-77
2023/04/13 09:51:23;;;;;;;7.70;7.30;;;10.60;20.40;;;;;;5012594;28;20782;-76
2023/04/13 09:53:49;;;;;;;7.73;7.23;;;10.60;20.10;;;;;;5012092;28;20440;-77
2023/04/13 09:56:16;;;;;;;7.23;6.83;;;10.60;20.70;;;;;;5011624;28;20428;-77
2023/04/13 09:58:46;;;;;;;7.10;6.70;;;10.70;21.00;;;;;;5013087;28;21107;-78
2023/04/13 10:01:15;;;;;;;8.00;7.40;;;10.70;20.60;;;;;;5011144;28;20522;-77
2023/04/13 10:03:42;;;;;;;8.13;7.40;;;10.70;20.60;;;;;;5012890;28;20827;-79
2023/04/13 10:06:08;;;;;;;8.10;7.70;;;10.70;21.10;;;;;;5011827;28;20427;-78
2023/04/13 10:08:36;;;;;;;8.40;8.00;;;10.60;21.00;;;;;;5013058;28;20424;-78
2023/04/13 10:11:03;;;;;;;8.90;8.40;;;10.60;21.50;;;;;;5012889;28;20824;-78
2023/04/13 10:13:44;;;;;;;7.50;7.00;;;10.70;22.30;;;;;;5013041;28;20435;-78
2023/04/13 10:16:22;;;;;;;8.47;7.97;;;10.70;23.70;;;;;;5011858;28;20515;-77
2023/04/13 10:19:00;;;;;;;8.17;7.57;;;10.70;22.90;;;;;;5012573;28;20435;-77
2023/04/13 10:21:34;;;;;;;8.33;7.67;;;10.60;22.00;;;;;;5012193;28;20411;-77
2023/04/13 10:24:04;;;;;;;7.77;7.27;;;10.70;22.00;;;;;;5012979;28;20818;-77
2023/04/13 10:26:34;;;;;;;8.15;7.45;;;10.70;21.30;;;;;;5011405;28;20426;-77
2023/04/13 10:29:01;;;;;;;8.10;7.50;;;10.70;21.60;;;;;;5011228;28;20199;-77
2023/04/13 10:31:46;;;;;;;7.90;7.30;;;10.70;21.70;;;;;;5011992;28;20919;-78
2023/04/13 10:34:38;;;;;;;8.03;7.50;;;10.90;22.00;;;;;;5012466;28;20835;-77
2023/04/13 10:37:14;;;;;;;7.97;7.40;;;11.00;21.80;;;;;;5011058;28;20443;-77
2023/04/13 10:39:39;;;;;;;9.27;8.57;;;11.10;21.70;;;;;;5012431;28;20885;-75
2023/04/13 10:42:05;;;;;;;8.80;8.00;;;11.10;21.00;;;;;;5011985;28;20416;-76
2023/04/13 10:44:48;;;;;;;8.00;7.40;;;11.10;20.80;;;;;;5012352;28;20204;-76
2023/04/13 10:47:15;;;;;;;7.70;7.20;;;11.00;21.10;;;;;;5012443;28;20280;-76
2023/04/13 10:49:42;;;;;;;9.13;8.47;;;10.90;21.00;;;;;;5012247;28;20424;-76
2023/04/13 10:52:10;;;;;;;8.20;7.60;;;10.80;23.70;;;;;;5011798;28;20419;-75
2023/04/13 10:54:36;;;;;;;7.77;7.03;;;10.80;22.40;;;;;;5012368;28;20448;-76
2023/04/13 10:57:05;;;;;;;8.27;7.67;;;10.80;22.60;;;;;;5015278;28;20458;-76
2023/04/13 10:59:43;;;;;;;8.37;7.70;;;10.60;21.70;;;;;;5016293;28;20436;-75
2023/04/13 11:02:13;;;;;;;7.80;7.30;;;10.80;22.10;;;;;;5014562;28;20424;-76
2023/04/13 11:04:44;;;;;;;7.80;7.30;;;11.00;21.20;;;;;;5014731;28;20538;-75
2023/04/13 11:07:13;;;;;;;6.90;6.60;;;11.00;20.40;;;;;;5016106;28;20844;-76
2023/04/13 11:09:41;;;;;;;8.20;7.50;;;11.10;21.00;;;;;;5015196;28;20782;-75
2023/04/13 11:12:07;;;;;;;8.70;8.10;;;11.10;20.40;;;;;;5015469;28;20459;-75
2023/04/13 11:14:36;;;;;;;8.23;7.83;;;11.10;20.50;;;;;;5015189;28;20443;-76
2023/04/13 11:17:04;;;;;;;8.07;7.47;;;11.20;21.00;;;;;;5016021;28;20420;-75
2023/04/13 11:19:30;;;;;;;8.27;7.47;;;11.30;20.70;;;;;;5014900;28;20436;-75
2023/04/13 11:21:56;;;;;;;7.83;7.30;;;11.10;20.30;;;;;;5014540;28;20426;-76
2023/04/13 11:24:27;;;;;;;7.87;7.30;;;11.10;20.30;;;;;;5018013;28;20207;-76
2023/04/13 11:26:53;;;;;;;8.03;7.53;;;11.00;20.90;;;;;;5017051;28;20412;-76
2023/04/13 11:29:20;;;;;;;8.37;7.67;;;11.20;20.90;;;;;;5016149;28;20431;-76
2023/04/13 11:31:46;;;;;;;8.97;8.13;;;11.50;22.00;;;;;;5014314;28;20176;-77
2023/04/13 11:34:21;;;;;;;8.50;7.80;;;11.40;27.50;;;;;;5015496;28;20420;-76
2023/04/13 11:36:48;;;;;;;8.07;7.67;;;11.00;30.20;;;;;;5012898;28;20748;-76
2023/04/13 11:39:14;;;;;;;10.60;9.87;;;11.00;30.00;;;;;;5010818;28;20628;-75
2023/04/13 11:41:42;;;;;;;10.87;9.60;;;10.80;32.20;;;;;;5009492;28;20436;-76
2023/04/13 11:44:11;;;;;;;10.17;8.87;;;10.60;35.60;;;;;;4995840;28;20680;-76
2023/04/13 11:46:36;;;;;;;9.13;8.33;;;10.40;37.40;;;;;;5010704;28;20413;-77
2023/04/13 11:49:03;;;;;;;10.27;9.67;;;10.50;37.40;;;;;;4995580;28;20436;-77
2023/04/13 11:51:29;;;;;;;9.20;8.40;;;10.70;36.20;;;;;;4995108;28;20249;-76
2023/04/13 11:53:57;;;;;;;8.77;8.17;;;10.70;38.50;;;;;;4995640;28;20448;-77
2023/04/13 11:56:24;;;;;;;10.90;10.07;;;10.80;38.40;;;;;;5010553;28;20463;-77
2023/04/13 11:58:51;;;;;;;9.00;8.40;;;10.60;35.10;;;;;;5010876;28;20999;-76
2023/04/13 12:01:20;;;;;;;9.30;8.60;;;10.60;34.30;;;;;;4993604;28;20425;-76
2023/04/13 12:03:46;;;;;;;8.80;8.07;;;10.70;34.70;;;;;;4995003;28;20481;-76
2023/04/13 12:06:13;;;;;;;9.37;8.57;;;10.80;34.50;;;;;;4995009;28;20516;-77
2023/04/13 12:08:39;;;;;;;8.47;8.17;;;11.00;36.10;;;;;;4995204;28;20225;-76
2023/04/13 12:11:05;;;;;;;8.60;8.00;;;11.00;34.50;;;;;;4994932;28;20441;-77
2023/04/13 12:13:39;;;;;;;8.90;8.30;;;11.00;34.90;;;;;;4994812;28;20181;-77
2023/04/13 12:16:05;;;;;;;9.30;8.80;;;11.10;35.80;;;;;;5010190;28;20421;-76
2023/04/13 12:18:31;;;;;;;9.90;9.20;;;11.10;36.70;;;;;;5010115;28;20555;-77
2023/04/13 12:21:00;;;;;;;9.80;9.23;;;11.10;34.90;;;;;;4994560;28;20637;-76
2023/04/13 12:23:26;;;;;;;9.47;8.97;;;11.20;35.50;;;;;;5009721;28;20421;-77
2023/04/13 12:25:58;;;;;;;10.00;9.40;;;11.20;34.60;;;;;;4995455;28;20413;-77
2023/04/13 12:28:31;;;;;;;9.87;9.37;;;11.20;32.50;;;;;;4995178;28;20441;-77
2023/04/13 12:31:08;;;;;;;10.60;9.77;;;11.30;31.60;;;;;;4994921;28;20787;-76
2023/04/13 12:33:35;;;;;;;10.07;9.37;;;11.30;32.40;;;;;;4994648;28;20919;-76
2023/04/13 12:36:01;;;;;;;10.20;9.73;;;11.30;30.10;;;;;;5009695;28;20917;-76
2023/04/13 12:38:26;;;;;;;11.23;10.53;;;11.50;29.10;;;;;;4994579;28;20433;-76
2023/04/13 12:40:59;;;;;;;11.33;10.63;;;11.70;31.10;;;;;;4994640;28;20437;-76
2023/04/13 12:43:25;;;;;;;12.07;11.37;;;11.70;28.30;;;;;;5008944;28;20173;-77
2023/04/13 12:45:51;;;;;;;11.13;10.53;;;11.80;28.30;;;;;;4994776;28;20903;-78
2023/04/13 12:48:17;;;;;;;10.83;10.23;;;11.90;28.30;;;;;;5009697;28;20433;-77
2023/04/13 12:50:43;;;;;;;10.73;9.60;;;12.10;27.70;;;;;;4993761;28;20476;-77
2023/04/13 12:53:10;;;;;;;10.40;9.70;;;12.20;26.80;;;;;;5008992;28;20410;-77
2023/04/13 12:55:39;;;;;;;9.70;9.10;;;12.30;26.60;;;;;;4994667;28;20253;-78